sensor_id;sensor_type;location;lat;lon;timestamp;temperature;humidity
8736;DHT22;4404;49.308;12.178;2023-01-09T00:03:48;5.60;99.90
8736;DHT22;4404;49.308;12.178;2023-01-09T00:09:50;5.60;99.90
8736;DHT22;4404;49.308;12.178;2023-01-09T00:15:52;5.70;99.90
8736;DHT22;4404;49.308;12.178;2023-01-09T00:21:55;5.70;99.90
8736;DHT22;4404;49.308;12.178;2023-01-09T00:27:57;5.70;99.90
8736;DHT22;4404;49.308;12.178;2023-01-09T00:34:01;5.70;99.90
8736;DHT22;4404;49.308;12.178;2023-01-09T00:40:10;5.70;99.90
8736;DHT22;4404;49.308;12.178;2023-01-09T00:46:13;5.70;99.90
8736;DHT22;4404;49.308;12.178;2023-01-09T00:52:16;5.70;99.90
8736;DHT22;4404;49.308;12.178;2023-01-09T00:58:20;6.10;99.90
8736;DHT22;4404;49.308;12.178;2023-01-09T01:04:22;5.70;99.90
8736;DHT22;4404;49.308;12.178;2023-01-09T01:10:42;5.70;99.90
8736;DHT22;4404;49.308;12.178;2023-01-09T01:16:45;5.80;99.90
8736;DHT22;4404;49.308;12.178;2023-01-09T01:22:47;5.80;99.90
8736;DHT22;4404;49.308;12.178;2023-01-09T01:28:50;5.80;99.90
8736;DHT22;4404;49.308;12.178;2023-01-09T01:34:53;5.80;99.90
8736;DHT22;4404;49.308;12.178;2023-01-09T01:40:55;5.70;99.90
8736;DHT22;4404;49.308;12.178;2023-01-09T01:46:57;5.80;99.90
8736;DHT22;4404;49.308;12.178;2023-01-09T01:53:06;5.70;99.90
8736;DHT22;4404;49.308;12.178;2023-01-09T01:59:13;5.80;99.90
8736;DHT22;4404;49.308;12.178;2023-01-09T02:05:18;5.70;99.90
8736;DHT22;4404;49.308;12.178;2023-01-09T02:11:21;5.70;99.90
8736;DHT22;4404;49.308;12.178;2023-01-09T02:17:43;5.50;99.90
8736;DHT22;4404;49.308;12.178;2023-01-09T02:24:27;5.50;99.90
8736;DHT22;4404;49.308;12.178;2023-01-09T02:30:42;5.60;99.90
8736;DHT22;4404;49.308;12.178;2023-01-09T02:36:51;5.60;99.90
8736;DHT22;4404;49.308;12.178;2023-01-09T02:42:57;5.60;99.90
8736;DHT22;4404;49.308;12.178;2023-01-09T02:49:02;5.70;99.90
8736;DHT22;4404;49.308;12.178;2023-01-09T02:55:09;5.90;99.90
8736;DHT22;4404;49.308;12.178;2023-01-09T03:01:22;5.70;99.90
8736;DHT22;4404;49.308;12.178;2023-01-09T03:07:32;5.70;99.90
8736;DHT22;4404;49.308;12.178;2023-01-09T03:13:40;5.70;99.90
8736;DHT22;4404;49.308;12.178;2023-01-09T03:19:44;5.70;99.90
8736;DHT22;4404;49.308;12.178;2023-01-09T03:25:48;5.70;99.90
8736;DHT22;4404;49.308;12.178;2023-01-09T03:31:50;5.70;99.90
8736;DHT22;4404;49.308;12.178;2023-01-09T03:37:53;5.70;99.90
8736;DHT22;4404;49.308;12.178;2023-01-09T03:43:56;5.70;99.90
8736;DHT22;4404;49.308;12.178;2023-01-09T03:49:58;5.70;99.90
8736;DHT22;4404;49.308;12.178;2023-01-09T03:56:00;5.70;99.90
8736;DHT22;4404;49.308;12.178;2023-01-09T04:02:07;5.70;99.90
8736;DHT22;4404;49.308;12.178;2023-01-09T04:08:09;5.70;99.90
8736;DHT22;4404;49.308;12.178;2023-01-09T04:14:11;5.80;99.90
8736;DHT22;4404;49.308;12.178;2023-01-09T04:20:15;5.80;99.90
8736;DHT22;4404;49.308;12.178;2023-01-09T04:26:17;5.90;99.90
8736;DHT22;4404;49.308;12.178;2023-01-09T04:32:20;5.90;99.90
8736;DHT22;4404;49.308;12.178;2023-01-09T04:38:23;5.90;99.90
8736;DHT22;4404;49.308;12.178;2023-01-09T04:44:26;5.90;99.90
8736;DHT22;4404;49.308;12.178;2023-01-09T04:50:29;5.90;99.90
8736;DHT22;4404;49.308;12.178;2023-01-09T04:56:32;6.20;99.90
8736;DHT22;4404;49.308;12.178;2023-01-09T05:02:35;5.90;99.90
8736;DHT22;4404;49.308;12.178;2023-01-09T05:08:37;5.90;99.90
8736;DHT22;4404;49.308;12.178;2023-01-09T05:14:40;5.80;99.90
8736;DHT22;4404;49.308;12.178;2023-01-09T05:20:42;5.80;99.90
8736;DHT22;4404;49.308;12.178;2023-01-09T05:26:44;5.80;99.90
8736;DHT22;4404;49.308;12.178;2023-01-09T05:32:48;5.80;99.90
8736;DHT22;4404;49.308;12.178;2023-01-09T05:38:50;5.80;99.90
8736;DHT22;4404;49.308;12.178;2023-01-09T05:44:52;5.80;99.90
8736;DHT22;4404;49.308;12.178;2023-01-09T05:50:55;5.80;99.90
8736;DHT22;4404;49.308;12.178;2023-01-09T05:56:57;5.90;99.90
8736;DHT22;4404;49.308;12.178;2023-01-09T06:02:59;5.90;99.90
8736;DHT22;4404;49.308;12.178;2023-01-09T06:09:03;5.90;99.90
8736;DHT22;4404;49.308;12.178;2023-01-09T06:15:06;5.90;99.90
8736;DHT22;4404;49.308;12.178;2023-01-09T06:21:09;5.90;99.90
8736;DHT22;4404;49.308;12.178;2023-01-09T06:27:12;5.90;99.90
8736;DHT22;4404;49.308;12.178;2023-01-09T06:33:14;5.80;99.90
8736;DHT22;4404;49.308;12.178;2023-01-09T06:39:17;5.70;99.90
8736;DHT22;4404;49.308;12.178;2023-01-09T06:45:20;5.70;99.90
8736;DHT22;4404;49.308;12.178;2023-01-09T06:51:22;5.80;99.90
8736;DHT22;4404;49.308;12.178;2023-01-09T06:57:24;5.80;99.90
8736;DHT22;4404;49.308;12.178;2023-01-09T07:03:28;5.90;99.90
8736;DHT22;4404;49.308;12.178;2023-01-09T07:09:30;5.80;99.90
8736;DHT22;4404;49.308;12.178;2023-01-09T07:15:32;5.90;99.90
8736;DHT22;4404;49.308;12.178;2023-01-09T07:21:36;5.90;99.90
8736;DHT22;4404;49.308;12.178;2023-01-09T07:27:38;6.00;99.90
8736;DHT22;4404;49.308;12.178;2023-01-09T07:33:40;6.10;99.90
8736;DHT22;4404;49.308;12.178;2023-01-09T07:39:43;6.20;99.90
8736;DHT22;4404;49.308;12.178;2023-01-09T07:45:45;6.30;99.90
8736;DHT22;4404;49.308;12.178;2023-01-09T07:51:47;6.20;99.90
8736;DHT22;4404;49.308;12.178;2023-01-09T07:57:51;6.20;99.90
8736;DHT22;4404;49.308;12.178;2023-01-09T08:03:53;6.20;99.90
8736;DHT22;4404;49.308;12.178;2023-01-09T08:09:55;6.30;99.90
8736;DHT22;4404;49.308;12.178;2023-01-09T08:15:58;6.40;99.90
8736;DHT22;4404;49.308;12.178;2023-01-09T08:22:01;6.40;99.90
8736;DHT22;4404;49.308;12.178;2023-01-09T08:28:03;6.50;99.90
8736;DHT22;4404;49.308;12.178;2023-01-09T08:34:07;6.50;99.90
8736;DHT22;4404;49.308;12.178;2023-01-09T08:40:11;6.60;99.90
8736;DHT22;4404;49.308;12.178;2023-01-09T08:46:18;6.50;99.90
8736;DHT22;4404;49.308;12.178;2023-01-09T08:52:39;6.60;99.90
8736;DHT22;4404;49.308;12.178;2023-01-09T08:58:42;6.70;99.90
8736;DHT22;4404;49.308;12.178;2023-01-09T09:04:46;6.80;99.90
8736;DHT22;4404;49.308;12.178;2023-01-09T09:10:52;7.30;99.90
8736;DHT22;4404;49.308;12.178;2023-01-09T09:16:54;7.00;99.90
8736;DHT22;4404;49.308;12.178;2023-01-09T09:22:56;6.90;99.90
8736;DHT22;4404;49.308;12.178;2023-01-09T09:29:00;6.90;99.90
8736;DHT22;4404;49.308;12.178;2023-01-09T09:35:02;6.90;99.90
8736;DHT22;4404;49.308;12.178;2023-01-09T09:41:25;6.90;99.90
8736;DHT22;4404;49.308;12.178;2023-01-09T09:48:08;6.90;99.90
8736;DHT22;4404;49.308;12.178;2023-01-09T09:54:22;6.90;99.90
8736;DHT22;4404;49.308;12.178;2023-01-09T10:00:27;6.90;99.90
8736;DHT22;4404;49.308;12.178;2023-01-09T10:06:36;6.90;99.90
8736;DHT22;4404;49.308;12.178;2023-01-09T10:12:47;7.10;99.90
8736;DHT22;4404;49.308;12.178;2023-01-09T10:19:01;7.10;99.90
8736;DHT22;4404;49.308;12.178;2023-01-09T10:25:23;7.10;99.90
8736;DHT22;4404;49.308;12.178;2023-01-09T10:31:34;7.10;99.90
8736;DHT22;4404;49.308;12.178;2023-01-09T10:37:44;7.20;99.90
8736;DHT22;4404;49.308;12.178;2023-01-09T10:43:53;7.20;99.90
8736;DHT22;4404;49.308;12.178;2023-01-09T10:49:58;7.30;99.90
8736;DHT22;4404;49.308;12.178;2023-01-09T10:56:07;7.30;99.90
8736;DHT22;4404;49.308;12.178;2023-01-09T11:02:25;7.30;99.90
8736;DHT22;4404;49.308;12.178;2023-01-09T11:08:34;7.30;99.90
8736;DHT22;4404;49.308;12.178;2023-01-09T11:14:41;7.30;99.90
8736;DHT22;4404;49.308;12.178;2023-01-09T11:20:44;7.30;99.90
8736;DHT22;4404;49.308;12.178;2023-01-09T11:26:49;7.20;99.90
8736;DHT22;4404;49.308;12.178;2023-01-09T11:32:54;7.30;99.90
8736;DHT22;4404;49.308;12.178;2023-01-09T11:38:59;7.40;99.90
8736;DHT22;4404;49.308;12.178;2023-01-09T11:45:02;7.40;99.90
8736;DHT22;4404;49.308;12.178;2023-01-09T11:51:17;7.40;99.90
8736;DHT22;4404;49.308;12.178;2023-01-09T11:57:24;7.40;99.90
8736;DHT22;4404;49.308;12.178;2023-01-09T12:03:40;7.40;99.90
8736;DHT22;4404;49.308;12.178;2023-01-09T12:09:57;7.50;99.90
8736;DHT22;4404;49.308;12.178;2023-01-09T12:16:10;7.50;99.90
8736;DHT22;4404;49.308;12.178;2023-01-09T12:22:21;7.50;99.90
8736;DHT22;4404;49.308;12.178;2023-01-09T12:28:58;7.50;99.90
8736;DHT22;4404;49.308;12.178;2023-01-09T12:35:21;7.40;99.90
8736;DHT22;4404;49.308;12.178;2023-01-09T12:41:52;7.50;99.90
8736;DHT22;4404;49.308;12.178;2023-01-09T12:48:07;7.50;99.90
8736;DHT22;4404;49.308;12.178;2023-01-09T12:54:22;7.60;99.90
8736;DHT22;4404;49.308;12.178;2023-01-09T13:00:31;7.50;99.90
8736;DHT22;4404;49.308;12.178;2023-01-09T13:06:39;7.50;99.90
8736;DHT22;4404;49.308;12.178;2023-01-09T13:12:48;7.50;99.90
8736;DHT22;4404;49.308;12.178;2023-01-09T13:18:56;7.50;99.90
8736;DHT22;4404;49.308;12.178;2023-01-09T13:25:42;7.50;99.90
8736;DHT22;4404;49.308;12.178;2023-01-09T13:38:48;7.50;99.90
8736;DHT22;4404;49.308;12.178;2023-01-09T13:44:54;7.60;99.90
8736;DHT22;4404;49.308;12.178;2023-01-09T13:58:23;7.70;99.90
8736;DHT22;4404;49.308;12.178;2023-01-09T14:04:37;7.70;99.90
8736;DHT22;4404;49.308;12.178;2023-01-09T14:10:48;7.60;99.90
8736;DHT22;4404;49.308;12.178;2023-01-09T14:16:53;7.60;99.90
8736;DHT22;4404;49.308;12.178;2023-01-09T14:22:55;7.60;99.90
8736;DHT22;4404;49.308;12.178;2023-01-09T14:35:42;7.70;99.90
8736;DHT22;4404;49.308;12.178;2023-01-09T14:41:49;7.80;99.90
8736;DHT22;4404;49.308;12.178;2023-01-09T14:48:10;7.80;99.90
8736;DHT22;4404;49.308;12.178;2023-01-09T14:54:27;7.80;99.90
8736;DHT22;4404;49.308;12.178;2023-01-09T15:00:35;7.80;99.90
8736;DHT22;4404;49.308;12.178;2023-01-09T15:06:40;7.80;99.90
8736;DHT22;4404;49.308;12.178;2023-01-09T15:12:46;7.80;99.90
8736;DHT22;4404;49.308;12.178;2023-01-09T15:18:52;8.00;99.90
8736;DHT22;4404;49.308;12.178;2023-01-09T15:24:58;7.80;99.90
8736;DHT22;4404;49.308;12.178;2023-01-09T15:31:03;7.80;99.90
8736;DHT22;4404;49.308;12.178;2023-01-09T15:37:21;7.70;99.90
8736;DHT22;4404;49.308;12.178;2023-01-09T15:43:29;8.00;99.90
8736;DHT22;4404;49.308;12.178;2023-01-09T15:49:32;7.70;99.90
8736;DHT22;4404;49.308;12.178;2023-01-09T15:55:36;7.60;99.90
8736;DHT22;4404;49.308;12.178;2023-01-09T16:01:42;7.50;99.90
8736;DHT22;4404;49.308;12.178;2023-01-09T16:08:13;7.30;99.90
8736;DHT22;4404;49.308;12.178;2023-01-09T16:14:22;7.30;99.90
8736;DHT22;4404;49.308;12.178;2023-01-09T16:20:31;7.10;99.90
8736;DHT22;4404;49.308;12.178;2023-01-09T16:26:34;6.80;99.90
8736;DHT22;4404;49.308;12.178;2023-01-09T16:32:45;6.80;99.90
8736;DHT22;4404;49.308;12.178;2023-01-09T16:38:52;6.90;99.90
8736;DHT22;4404;49.308;12.178;2023-01-09T16:44:56;6.80;99.90
8736;DHT22;4404;49.308;12.178;2023-01-09T16:50:58;6.70;99.90
8736;DHT22;4404;49.308;12.178;2023-01-09T16:57:02;6.60;99.90
8736;DHT22;4404;49.308;12.178;2023-01-09T17:03:04;6.70;99.90
8736;DHT22;4404;49.308;12.178;2023-01-09T17:09:11;6.80;99.90
8736;DHT22;4404;49.308;12.178;2023-01-09T17:15:15;6.80;99.90
8736;DHT22;4404;49.308;12.178;2023-01-09T17:21:20;6.90;99.90
8736;DHT22;4404;49.308;12.178;2023-01-09T17:27:27;7.00;99.90
8736;DHT22;4404;49.308;12.178;2023-01-09T17:33:51;7.10;99.90
8736;DHT22;4404;49.308;12.178;2023-01-09T17:39:58;7.10;99.90
8736;DHT22;4404;49.308;12.178;2023-01-09T17:46:03;7.00;99.90
8736;DHT22;4404;49.308;12.178;2023-01-09T17:52:07;7.10;99.90
8736;DHT22;4404;49.308;12.178;2023-01-09T17:58:19;7.10;99.90
8736;DHT22;4404;49.308;12.178;2023-01-09T18:04:26;7.10;99.90
8736;DHT22;4404;49.308;12.178;2023-01-09T18:10:39;7.10;99.90
8736;DHT22;4404;49.308;12.178;2023-01-09T18:16:42;7.10;99.90
8736;DHT22;4404;49.308;12.178;2023-01-09T18:22:44;7.10;99.90
8736;DHT22;4404;49.308;12.178;2023-01-09T18:28:50;7.10;99.90
8736;DHT22;4404;49.308;12.178;2023-01-09T18:34:54;7.20;99.90
8736;DHT22;4404;49.308;12.178;2023-01-09T18:40:57;7.20;99.90
8736;DHT22;4404;49.308;12.178;2023-01-09T18:47:01;7.20;99.90
8736;DHT22;4404;49.308;12.178;2023-01-09T18:53:03;7.20;99.90
8736;DHT22;4404;49.308;12.178;2023-01-09T18:59:08;7.20;99.90
8736;DHT22;4404;49.308;12.178;2023-01-09T19:05:12;7.20;99.90
8736;DHT22;4404;49.308;12.178;2023-01-09T19:11:15;7.20;99.90
8736;DHT22;4404;49.308;12.178;2023-01-09T19:17:18;7.20;99.90
8736;DHT22;4404;49.308;12.178;2023-01-09T19:23:24;7.60;99.90
8736;DHT22;4404;49.308;12.178;2023-01-09T19:29:26;7.20;99.90
8736;DHT22;4404;49.308;12.178;2023-01-09T19:35:28;7.20;99.90
8736;DHT22;4404;49.308;12.178;2023-01-09T19:41:32;7.20;99.90
8736;DHT22;4404;49.308;12.178;2023-01-09T19:47:35;7.20;99.90
8736;DHT22;4404;49.308;12.178;2023-01-09T19:53:38;7.30;99.90
8736;DHT22;4404;49.308;12.178;2023-01-09T19:59:41;7.10;99.90
8736;DHT22;4404;49.308;12.178;2023-01-09T20:05:43;7.10;99.90
8736;DHT22;4404;49.308;12.178;2023-01-09T20:11:45;7.10;99.90
8736;DHT22;4404;49.308;12.178;2023-01-09T20:17:49;7.10;99.90
8736;DHT22;4404;49.308;12.178;2023-01-09T20:23:53;7.10;99.90
8736;DHT22;4404;49.308;12.178;2023-01-09T20:29:56;7.10;99.90
8736;DHT22;4404;49.308;12.178;2023-01-09T20:36:02;7.10;99.90
8736;DHT22;4404;49.308;12.178;2023-01-09T20:42:07;7.10;99.90
8736;DHT22;4404;49.308;12.178;2023-01-09T20:48:11;7.10;99.90
8736;DHT22;4404;49.308;12.178;2023-01-09T20:54:16;7.10;99.90
8736;DHT22;4404;49.308;12.178;2023-01-09T21:00:22;7.00;99.90
8736;DHT22;4404;49.308;12.178;2023-01-09T21:06:26;7.30;99.90
8736;DHT22;4404;49.308;12.178;2023-01-09T21:12:30;7.10;99.90
8736;DHT22;4404;49.308;12.178;2023-01-09T21:18:35;7.00;99.90
8736;DHT22;4404;49.308;12.178;2023-01-09T21:24:38;7.00;99.90
8736;DHT22;4404;49.308;12.178;2023-01-09T21:30:42;6.90;99.90
8736;DHT22;4404;49.308;12.178;2023-01-09T21:36:49;6.90;99.90
8736;DHT22;4404;49.308;12.178;2023-01-09T21:42:51;6.90;99.90
8736;DHT22;4404;49.308;12.178;2023-01-09T21:49:11;6.90;99.90
8736;DHT22;4404;49.308;12.178;2023-01-09T21:55:13;7.00;99.90
8736;DHT22;4404;49.308;12.178;2023-01-09T22:01:15;7.00;99.90
8736;DHT22;4404;49.308;12.178;2023-01-09T22:07:20;7.00;99.90
8736;DHT22;4404;49.308;12.178;2023-01-09T22:13:23;6.90;99.90
8736;DHT22;4404;49.308;12.178;2023-01-09T22:19:25;6.90;99.90
8736;DHT22;4404;49.308;12.178;2023-01-09T22:25:30;6.90;99.90
8736;DHT22;4404;49.308;12.178;2023-01-09T22:31:32;6.90;99.90
8736;DHT22;4404;49.308;12.178;2023-01-09T22:37:39;6.90;99.90
8736;DHT22;4404;49.308;12.178;2023-01-09T22:43:42;7.00;99.90
8736;DHT22;4404;49.308;12.178;2023-01-09T22:49:44;7.00;99.90
8736;DHT22;4404;49.308;12.178;2023-01-09T22:55:53;7.00;99.90
8736;DHT22;4404;49.308;12.178;2023-01-09T23:02:02;6.90;99.90
8736;DHT22;4404;49.308;12.178;2023-01-09T23:08:04;7.00;99.90
8736;DHT22;4404;49.308;12.178;2023-01-09T23:14:07;7.00;99.90
8736;DHT22;4404;49.308;12.178;2023-01-09T23:20:11;7.30;99.90
8736;DHT22;4404;49.308;12.178;2023-01-09T23:26:16;7.00;99.90
8736;DHT22;4404;49.308;12.178;2023-01-09T23:32:18;7.00;99.90
8736;DHT22;4404;49.308;12.178;2023-01-09T23:38:23;7.00;99.90
8736;DHT22;4404;49.308;12.178;2023-01-09T23:44:27;7.00;99.90
8736;DHT22;4404;49.308;12.178;2023-01-09T23:50:30;7.00;99.90
8736;DHT22;4404;49.308;12.178;2023-01-09T23:56:34;7.00;99.90
